Latest Weather Observations for Cape Naturaliste

IDW60801

Issued at 8:35 am WST Thursday 17 April 2014 (issued every 30 minutes, with the page automatically refreshed every 10 minutes)

About weather observations | Map of weather stations | Latest weather observations for WA | Other Formats
Station Details ID: 009519 Name: CAPE NATURALISTE Lat: -33.54 Lon: 115.02 Height: 109.0 m
Data from the previous 72 hours. | See also: Recent months at Cape Naturaliste
Date/Time
WST
Temp
°C
App
Temp
°C
Dew
Point
Rel
Hum
%
Delta-T
°C
Wind Press
QNH
hPa
Press
MSL
hPa
Rain
since 9 am
mm
Dir
 
Spd
km/h
Gust
km/h
Spd
kts
Gust
kts
17/08:30am 17.5 16.7 15.1 86 1.4 SSW 13 17 7 9 1022.0 - 0.4
17/08:00am 16.8 13.6 14.3 85 1.4 SW 24 30 13 16 1021.7 - 0.4
17/07:30am 16.9 14.6 14.0 83 1.7 W 19 24 10 13 1021.3 - 0.0
17/07:00am 17.6 13.5 13.7 78 2.2 WSW 28 33 15 18 1021.0 - 0.0
17/06:30am 17.8 15.8 12.7 72 2.9 SSW 15 22 8 12 1020.6 - 0.0
17/06:00am 18.3 14.4 13.2 72 2.9 SW 26 35 14 19 1020.4 1020.1 0.0
17/05:30am 18.7 15.4 10.8 60 4.3 WSW 19 26 10 14 1020.3 - 0.0
17/05:00am 18.7 15.5 12.0 65 3.7 SW 20 30 11 16 1020.0 - 0.0
17/04:30am 18.5 15.2 11.6 64 3.8 WSW 20 30 11 16 1019.8 - 0.0
17/04:00am 18.4 13.8 12.4 68 3.4 WSW 28 33 15 18 1019.8 - 0.0
17/03:30am 18.6 14.5 11.4 63 4.0 WSW 24 30 13 16 1019.8 - 0.0
17/03:00am 18.6 15.2 12.4 67 3.5 SW 22 30 12 16 1019.8 1019.5 0.0
17/02:30am 18.6 14.6 11.7 64 3.8 SW 24 32 13 17 1019.9 - 0.0
17/02:00am 18.5 15.4 12.3 67 3.5 WSW 20 28 11 15 1020.1 - 0.0
17/01:30am 18.6 15.5 12.1 66 3.6 SW 20 30 11 16 1020.0 - 0.0
17/01:00am 18.3 15.9 12.7 70 3.1 W 17 22 9 12 1020.0 - 0.0
17/12:30am 18.1 16.0 12.3 69 3.2 WSW 15 19 8 10 1020.1 - 0.0
17/12:00am 18.1 15.0 12.1 68 3.3 W 20 24 11 13 1020.2 1019.9 0.0
 
Date/Time
WST
Temp
°C
App
Temp
°C
Dew
Point
Rel
Hum
%
Delta-T
°C
Wind Press
QNH
hPa
Press
MSL
hPa
Rain
since 9 am
mm
Dir
 
Spd
km/h
Gust
km/h
Spd
kts
Gust
kts
16/11:30pm 18.1 15.3 11.2 64 3.8 SW 17 20 9 11 1020.4 - 0.0
16/11:00pm 18.3 14.6 11.4 64 3.8 WSW 22 30 12 16 1020.7 - 0.0
16/10:30pm 18.1 15.1 11.9 67 3.4 WSW 19 24 10 13 1020.7 - 0.0
16/10:00pm 18.2 15.8 11.3 64 3.8 SW 15 20 8 11 1020.8 - 0.0
16/09:30pm 18.3 14.8 10.9 62 4.0 WSW 20 26 11 14 1020.8 - 0.0
16/09:00pm 18.1 15.8 11.7 66 3.5 SW 15 20 8 11 1020.8 1020.5 0.0
16/08:30pm 18.1 15.5 11.9 67 3.4 W 17 24 9 13 1020.7 - 0.0
16/08:00pm 18.2 15.1 11.5 65 3.7 WSW 19 24 10 13 1020.6 - 0.0
16/07:30pm 18.1 15.6 11.2 64 3.8 WSW 15 19 8 10 1020.6 - 0.0
16/07:00pm 18.1 15.1 10.7 62 4.0 WSW 17 28 9 15 1020.5 - 0.0
16/06:30pm 18.0 15.9 11.1 64 3.8 WSW 13 20 7 11 1020.5 - 0.0
16/06:00pm 18.2 15.2 10.8 62 4.0 SW 17 24 9 13 1020.5 1020.2 0.0
16/05:30pm 18.4 15.4 10.7 61 4.2 WSW 17 22 9 12 1020.6 - 0.0
16/05:00pm 18.8 17.7 11.9 64 3.8 WSW 9 11 5 6 1020.5 - 0.0
16/04:30pm 19.1 18.0 11.9 63 4.0 WNW 9 11 5 6 1020.6 - 0.0
16/04:00pm 19.2 18.3 11.5 61 4.3 W 7 13 4 7 1020.8 - 0.0
16/03:30pm 19.6 18.9 11.9 61 4.3 W 7 11 4 6 1021.0 - 0.0
16/03:00pm 19.5 17.9 11.5 60 4.4 WSW 11 17 6 9 1021.1 1020.8 0.0
16/02:30pm 19.6 18.0 11.6 60 4.4 W 11 15 6 8 1021.4 - 0.0
16/02:00pm 20.6 19.4 11.5 56 5.1 WNW 9 15 5 8 1021.3 - 0.0
16/01:30pm 20.4 17.7 11.6 57 4.9 N 17 20 9 11 1021.6 - 0.0
16/01:00pm 19.8 17.7 11.3 58 4.7 N 13 17 7 9 1022.1 - 0.0
16/12:30pm 19.4 18.0 10.9 58 4.6 NNE 9 13 5 7 1022.5 - 0.0
16/12:00pm 19.5 17.8 11.3 59 4.5 NNE 11 13 6 7 1023.0 1022.7 0.0
16/11:30am 19.7 18.2 12.0 61 4.3 NNE 11 13 6 7 1023.3 - 0.0
16/11:00am 19.1 17.5 11.7 62 4.1 ENE 11 15 6 8 1023.4 - 0.0
16/10:30am 18.7 17.5 11.5 63 4.0 NE 9 13 5 7 1023.6 - 0.0
16/10:00am 18.6 17.0 11.7 64 3.8 E 11 15 6 8 1023.7 - 0.0
16/09:30am 18.0 16.8 11.6 66 3.5 E 9 11 5 6 1023.8 - 0.0
16/09:00am 17.5 16.6 11.5 68 3.3 ESE 7 11 4 6 1023.8 1023.5 3.8
16/08:30am 16.9 15.6 11.2 69 3.1 SE 9 13 5 7 1023.7 - 3.8
16/08:00am 16.3 14.5 10.8 70 2.9 SE 11 13 6 7 1023.4 - 3.8
16/07:30am 15.9 14.0 10.4 70 2.9 SE 11 13 6 7 1023.2 - 3.8
16/07:00am 15.6 13.6 10.2 70 2.8 ESE 11 13 6 7 1022.9 - 3.8
16/06:30am 15.5 13.4 9.8 69 3.0 SE 11 13 6 7 1022.8 - 3.8
16/06:00am 15.4 13.3 9.7 69 3.0 SE 11 11 6 6 1022.7 1022.4 3.8
16/05:30am 15.3 13.2 9.9 70 2.8 SE 11 13 6 7 1022.6 - 3.8
16/05:00am 15.2 13.2 10.0 71 2.7 SE 11 13 6 7 1022.5 - 3.8
16/04:30am 15.1 13.1 10.1 72 2.6 SSE 11 13 6 7 1022.5 - 3.8
16/04:00am 15.2 12.8 10.2 72 2.6 SSE 13 17 7 9 1022.5 - 3.8
16/03:30am 14.8 11.9 9.8 72 2.6 SSE 15 17 8 9 1022.5 - 3.8
16/03:00am 14.9 12.1 9.9 72 2.6 S 15 19 8 10 1022.5 1022.2 3.8
16/02:30am 14.8 12.1 10.2 74 2.4 SSE 15 19 8 10 1022.7 - 3.8
16/02:00am 14.6 11.5 10.2 75 2.3 SSE 17 20 9 11 1022.8 - 3.8
16/01:30am 14.4 11.2 10.0 75 2.3 S 17 19 9 10 1023.1 - 3.8
16/01:00am 14.7 12.4 10.3 75 2.3 SSE 13 15 7 8 1023.1 - 3.8
16/12:30am 14.1 11.3 10.1 77 2.1 SSE 15 17 8 9 1023.1 - 3.8
16/12:00am 13.6 10.4 9.8 78 2.0 SSE 17 20 9 11 1023.2 1022.9 3.8
 
Date/Time
WST
Temp
°C
App
Temp
°C
Dew
Point
Rel
Hum
%
Delta-T
°C
Wind Press
QNH
hPa
Press
MSL
hPa
Rain
since 9 am
mm
Dir
 
Spd
km/h
Gust
km/h
Spd
kts
Gust
kts
15/11:30pm 13.9 10.4 10.3 79 1.9 SSE 19 22 10 12 1023.2 - 3.8
15/11:00pm 14.2 10.7 10.8 80 1.8 S 20 24 11 13 1023.4 - 3.8
15/10:30pm 14.7 11.4 11.7 82 1.6 S 20 26 11 14 1023.4 - 3.8
15/10:00pm 14.6 11.4 11.9 84 1.5 S 20 26 11 14 1023.5 - 3.8
15/09:30pm 14.9 11.9 12.4 85 1.4 S 20 24 11 13 1023.5 - 3.8
15/09:00pm 15.8 13.1 13.5 86 1.3 S 20 28 11 15 1023.4 1023.1 3.8
15/08:30pm 16.3 14.0 14.1 87 1.3 S 19 24 10 13 1022.9 - 3.8
15/08:00pm 16.5 13.8 14.5 88 1.2 S 22 28 12 15 1022.6 - 3.8
15/07:30pm 16.5 13.0 14.5 88 1.2 S 26 32 14 17 1022.2 - 3.8
15/07:00pm 16.6 13.1 14.6 88 1.2 S 26 32 14 17 1021.8 - 3.8
15/06:30pm 17.2 13.6 15.2 88 1.2 S 28 37 15 20 1021.6 - 3.4
15/06:00pm 17.7 13.2 15.5 87 1.3 SSW 33 44 18 24 1021.3 1021.0 3.4
15/05:48pm 18.0 14.6 15.8 87 1.3 SSW 28 46 15 25 1021.2 - 3.4
15/05:30pm 18.4 16.3 16.2 87 1.3 SSW 22 30 12 16 1021.3 - 3.4
15/05:00pm 18.6 16.0 16.0 85 1.6 WSW 24 32 13 17 1021.1 - 3.0
15/04:30pm 19.6 17.6 16.4 82 1.9 WSW 22 28 12 15 1020.9 - 0.0
15/04:00pm 19.8 15.3 15.0 74 2.8 SW 32 41 17 22 1021.0 - 0.0
15/03:30pm 22.3 19.2 15.6 66 4.0 WSW 26 33 14 18 1021.0 - 0.0
15/03:00pm 21.8 18.3 15.4 67 3.8 WSW 28 39 15 21 1020.9 1020.6 0.0
15/02:30pm 24.0 21.4 15.8 60 5.0 WSW 24 32 13 17 1020.6 - 0.0
15/02:00pm 22.4 20.6 16.0 67 3.9 W 20 28 11 15 1020.4 - 0.0
15/01:30pm 22.2 18.4 15.8 67 3.9 W 30 37 16 20 1020.4 - 0.0
15/01:00pm 24.5 21.6 16.2 60 5.1 W 26 33 14 18 1020.7 - 0.0
15/12:30pm 23.2 20.4 16.3 65 4.2 W 26 33 14 18 1020.9 - 0.0
15/12:00pm 22.7 19.2 15.5 64 4.3 W 28 35 15 19 1021.2 1020.9 0.0
15/11:30am 21.7 18.6 14.6 64 4.2 W 24 35 13 19 1021.2 - 0.0
15/11:00am 21.6 20.3 14.7 65 4.1 W 15 20 8 11 1021.2 - 0.0
15/10:30am 21.2 19.4 14.4 65 4.0 W 17 20 9 11 1021.1 - 0.0
15/10:00am 21.4 19.1 14.6 65 4.0 W 20 28 11 15 1021.1 - 0.0
15/09:30am 20.0 16.2 13.5 66 3.7 WSW 26 32 14 17 1021.2 - 0.0
15/09:00am 19.2 14.7 13.8 71 3.1 WSW 30 39 16 21 1021.1 1020.8 0.0
15/08:30am 19.6 15.6 14.0 70 3.2 WSW 28 35 15 19 1020.6 - 0.0
15/08:00am 19.7 16.5 14.3 71 3.1 WSW 24 30 13 16 1020.1 - 0.0
15/07:30am 19.4 17.4 14.0 71 3.1 W 17 20 9 11 1019.6 - 0.0
15/07:00am 18.4 16.2 13.3 72 2.9 WSW 17 20 9 11 1019.0 - 0.0
15/06:30am 18.2 15.4 13.1 72 2.9 WSW 20 24 11 13 1019.1 - 0.0
15/06:00am 18.8 16.3 13.4 71 3.1 W 19 24 10 13 1019.0 1018.8 0.0
15/05:30am 18.3 15.1 13.2 72 2.9 WSW 22 30 12 16 1018.9 - 0.0
15/05:00am 18.3 14.9 13.6 74 2.7 WSW 24 32 13 17 1019.0 - 0.0
15/04:30am 18.6 14.6 14.1 75 2.6 W 28 33 15 18 1018.8 - 0.0
15/04:00am 18.7 15.6 14.6 77 2.4 W 24 30 13 16 1018.7 - 0.0
15/03:30am 18.6 15.7 15.1 80 2.1 WSW 24 32 13 17 1018.7 - 0.0
15/03:00am 18.9 15.4 15.4 80 2.1 WSW 28 35 15 19 1018.7 1018.5 0.0
15/02:30am 19.3 16.8 16.2 82 1.9 WSW 24 30 13 16 1018.9 - 0.0
15/02:00am 19.1 16.2 16.1 83 1.8 WSW 26 32 14 17 1019.1 - 0.0
15/01:30am 19.3 16.6 16.5 84 1.7 W 26 35 14 19 1019.1 - 0.0
15/01:00am 18.8 17.3 16.2 85 1.6 W 19 22 10 12 1019.0 - 0.0
15/12:30am 18.8 17.3 16.2 85 1.6 W 19 22 10 12 1019.0 - 0.0
15/12:00am 18.9 17.8 16.3 85 1.6 W 17 20 9 11 1019.0 1018.8 0.0
 
Date/Time
WST
Temp
°C
App
Temp
°C
Dew
Point
Rel
Hum
%
Delta-T
°C
Wind Press
QNH
hPa
Press
MSL
hPa
Rain
since 9 am
mm
Dir
 
Spd
km/h
Gust
km/h
Spd
kts
Gust
kts
14/11:30pm 18.8 17.7 16.4 86 1.4 W 17 20 9 11 1019.1 - 0.0
14/11:00pm 18.5 17.2 15.9 85 1.5 W 17 20 9 11 1019.2 - 0.0
14/10:30pm 18.3 17.3 15.6 84 1.6 W 15 19 8 10 1019.3 - 0.0
14/10:00pm 18.4 17.4 15.6 84 1.7 WSW 15 19 8 10 1019.2 - 0.0
14/09:30pm 18.5 17.5 15.6 83 1.7 WSW 15 20 8 11 1019.3 - 0.0
14/09:00pm 18.7 17.8 15.8 83 1.7 SW 15 20 8 11 1019.3 1019.1 0.0
14/08:30pm 18.7 17.7 15.6 82 1.8 SW 15 20 8 11 1019.2 - 0.0
14/08:00pm 19.1 17.4 15.8 81 2.0 SW 19 24 10 13 1019.1 - 0.0
14/07:30pm 19.2 16.1 15.7 80 2.1 SW 26 30 14 16 1019.1 - 0.0
14/07:00pm 19.5 16.6 16.0 80 2.1 WSW 26 32 14 17 1018.8 - 0.0
14/06:30pm 19.7 16.7 15.8 78 2.3 WSW 26 30 14 16 1018.7 - 0.0
14/06:00pm 19.9 16.3 15.3 75 2.7 WSW 28 33 15 18 1018.7 1018.5 0.0
14/05:30pm 20.3 17.5 15.3 73 3.0 WSW 24 32 13 17 1018.6 - 0.0
14/05:00pm 20.4 17.5 15.2 72 3.1 WSW 24 30 13 16 1018.3 - 0.0
14/04:30pm 21.0 18.1 15.1 69 3.5 WSW 24 32 13 17 1018.2 - 0.0
14/04:00pm 22.9 20.7 16.0 65 4.2 WSW 22 26 12 14 1018.0 - 0.0
14/03:30pm 23.4 21.3 16.2 64 4.4 WSW 22 28 12 15 1018.1 - 0.0
14/03:00pm 23.7 22.0 16.2 63 4.6 W 20 26 11 14 1018.0 1017.8 0.0
14/02:30pm 23.6 22.0 16.1 62 4.6 W 19 22 10 12 1017.9 - 0.0
14/02:00pm 23.9 22.8 16.4 63 4.6 W 17 24 9 13 1017.9 - 0.0
14/01:30pm 23.6 22.1 16.4 64 4.4 WSW 19 24 10 13 1018.0 - 0.0
14/01:00pm 23.5 22.8 16.3 64 4.4 WSW 15 20 8 11 1018.5 - 0.0
14/12:30pm 23.1 22.2 15.9 64 4.4 W 15 22 8 12 1018.8 - 0.0
14/12:00pm 24.0 23.3 16.5 63 4.6 W 15 20 8 11 1019.2 1019.0 0.0
14/11:30am 23.2 22.8 16.3 65 4.2 WSW 13 19 7 10 1019.3 - 0.0
14/11:00am 22.8 22.3 15.9 65 4.2 WSW 13 19 7 10 1019.8 - 0.0
14/10:30am 22.2 21.9 15.5 66 4.0 WSW 11 15 6 8 1019.9 - 0.0
14/10:00am 21.8 21.3 15.9 69 3.6 SW 13 17 7 9 1019.8 - 0.0
14/09:30am 21.6 21.3 15.4 68 3.7 ESE 11 17 6 9 1019.8 - 0.0
14/09:00am 20.5 19.1 15.5 73 3.0 ESE 17 22 9 12 1019.5 1019.2 0.0

Other Formats:

Comma delimited format used in spreadsheet applications
http://www.bom.gov.au/fwo/IDW60801/IDW60801.94600.axf

JavaScript Object Notation format (JSON) in row-major order
http://www.bom.gov.au/fwo/IDW60801/IDW60801.94600.json